Time;durP1;ratioP1;P1;durP2;ratioP2;P2;SDS_P1;SDS_P2;PMS_P1;PMS_P2;Temp;Humidity;BMP_temperature;BMP_pressure;BME280_temperature;BME280_humidity;BME280_pressure;Samples;Min_cycle;Max_cycle;Signal;HPM_P1;HPM_P2
2022/12/27 00:01:16;;;;;;;11.17;3.37;;;;;;;0.30;100.00;102089.16;6182057;23;20009;-87
2022/12/27 00:03:41;;;;;;;13.88;3.67;;;;;;;0.38;100.00;102103.34;6182696;23;20060;-87
2022/12/27 00:06:10;;;;;;;16.83;4.47;;;;;;;0.40;100.00;102106.66;6183725;23;20005;-88
2022/12/27 00:08:36;;;;;;;14.05;3.80;;;;;;;0.37;100.00;102106.97;6182678;23;20009;-87
2022/12/27 00:11:16;;;;;;;18.30;3.90;;;;;;;0.42;100.00;102117.88;6182492;23;19997;-87
2022/12/27 00:13:42;;;;;;;13.75;3.72;;;;;;;0.44;100.00;102119.38;6182837;23;20005;-88
2022/12/27 00:16:10;;;;;;;13.37;3.70;;;;;;;0.49;100.00;102110.16;6183116;23;20067;-88
2022/12/27 00:18:37;;;;;;;9.38;3.60;;;;;;;0.54;100.00;102115.81;6182206;23;20091;-88
2022/12/27 00:21:03;;;;;;;12.07;4.10;;;;;;;0.57;100.00;102116.31;6182213;23;20005;-87
2022/12/27 00:23:35;;;;;;;18.50;4.13;;;;;;;0.53;100.00;102108.88;6182656;23;20072;-87
2022/12/27 00:26:10;;;;;;;12.07;4.27;;;;;;;0.50;100.00;102111.81;6183149;23;20422;-87
2022/12/27 00:28:35;;;;;;;18.80;4.13;;;;;;;0.50;100.00;102114.47;6182257;23;20275;-87
2022/12/27 00:31:01;;;;;;;12.13;3.70;;;;;;;0.53;100.00;102120.22;6181671;23;20001;-87
2022/12/27 00:33:28;;;;;;;10.90;3.53;;;;;;;0.47;100.00;102109.50;6181947;23;20430;-86
2022/12/27 00:35:54;;;;;;;14.53;3.50;;;;;;;0.49;100.00;102118.06;6181775;23;20241;-87
2022/12/27 00:38:20;;;;;;;10.00;3.60;;;;;;;0.48;100.00;102126.97;6183479;23;20005;-87
2022/12/27 00:40:45;;;;;;;17.03;3.93;;;;;;;0.40;100.00;102125.94;6156170;23;20430;-87
2022/12/27 00:43:10;;;;;;;18.50;3.55;;;;;;;0.35;100.00;102116.84;6182140;23;20005;-87
2022/12/27 00:45:36;;;;;;;11.23;3.17;;;;;;;0.34;100.00;102133.66;6156415;23;20051;-88
2022/12/27 00:48:01;;;;;;;11.67;3.27;;;;;;;0.27;100.00;102123.72;6182623;23;20009;-87
2022/12/27 00:50:26;;;;;;;13.33;3.80;;;;;;;0.41;100.00;102134.69;6182422;23;20496;-87
2022/12/27 00:52:51;;;;;;;17.93;4.30;;;;;;;0.42;100.00;102129.25;6182536;23;20013;-87
2022/12/27 00:55:18;;;;;;;14.17;3.87;;;;;;;0.51;100.00;102137.22;6182368;23;20013;-87
2022/12/27 00:57:43;;;;;;;9.95;3.67;;;;;;;0.48;100.00;102138.34;6182681;23;20072;-87
2022/12/27 01:00:09;;;;;;;17.40;3.57;;;;;;;0.45;100.00;102136.03;6180702;23;20430;-87
2022/12/27 01:02:38;;;;;;;12.38;3.92;;;;;;;0.41;100.00;102147.88;6181134;23;20434;-87
2022/12/27 01:05:04;;;;;;;12.25;3.88;;;;;;;0.39;100.00;102139.31;6183359;23;20009;-87
2022/12/27 01:07:30;;;;;;;14.52;3.58;;;;;;;0.42;100.00;102137.16;6182519;23;20004;-87
2022/12/27 01:09:55;;;;;;;12.83;4.10;;;;;;;0.50;100.00;102146.94;6182428;23;20565;-87
2022/12/27 01:12:20;;;;;;;11.97;3.80;;;;;;;0.41;100.00;102138.16;6182271;23;20043;-86
2022/12/27 01:14:46;;;;;;;17.80;4.47;;;;;;;0.47;100.00;102154.34;6182308;23;20005;-87
2022/12/27 01:17:11;;;;;;;14.27;3.70;;;;;;;0.46;100.00;102156.13;6183134;23;20124;-87
2022/12/27 01:19:37;;;;;;;18.07;4.13;;;;;;;0.41;100.00;102158.44;6182576;23;20091;-87
2022/12/27 01:22:04;;;;;;;13.50;3.97;;;;;;;0.36;100.00;102158.91;6181974;23;20002;-86
2022/12/27 01:24:30;;;;;;;10.48;3.17;;;;;;;0.38;100.00;102162.19;6181348;23;20038;-87
2022/12/27 01:26:55;;;;;;;14.75;3.25;;;;;;;0.44;100.00;102169.50;6183043;23;20059;-87
2022/12/27 01:29:20;;;;;;;14.33;3.27;;;;;;;0.42;100.00;102158.25;6182379;23;20028;-87
2022/12/27 01:31:47;;;;;;;18.13;4.37;;;;;;;0.53;100.00;102156.34;6178908;23;20373;-87
2022/12/27 01:34:13;;;;;;;16.80;3.92;;;;;;;0.60;100.00;102167.91;6155824;23;20009;-87
2022/12/27 01:36:38;;;;;;;17.10;3.72;;;;;;;0.60;100.00;102170.53;6182436;23;20039;-87
2022/12/27 01:39:03;;;;;;;10.57;3.60;;;;;;;0.58;100.00;102175.16;6183037;23;20005;-87
2022/12/27 01:47:12;;;;;;;11.03;3.30;;;;;;;0.55;100.00;102192.13;6181760;23;20055;-87
2022/12/27 01:49:40;;;;;;;17.07;3.77;;;;;;;0.52;100.00;102179.25;6181582;23;20240;-87
2022/12/27 01:52:08;;;;;;;16.42;4.10;;;;;;;0.57;100.00;102189.31;6155531;23;20063;-87
2022/12/27 01:54:34;;;;;;;12.65;3.60;;;;;;;0.61;100.00;102188.03;6181644;23;20418;-87
2022/12/27 01:57:00;;;;;;;16.35;3.78;;;;;;;0.62;100.00;102187.03;6182473;23;20012;-87
2022/12/27 01:59:25;;;;;;;14.45;4.18;;;;;;;0.67;100.00;102197.97;6182721;23;20013;-87
2022/12/27 02:01:54;;;;;;;21.80;3.70;;;;;;;0.63;100.00;102195.81;6180609;23;20072;-87
2022/12/27 02:04:25;;;;;;;14.93;4.03;;;;;;;0.68;100.00;102196.97;6182138;23;20013;-87
2022/12/27 02:06:51;;;;;;;17.80;3.10;;;;;;;0.66;100.00;102203.38;6181600;23;20417;-87
2022/12/27 02:09:34;;;;;;;15.52;3.80;;;;;;;0.63;100.00;102207.16;6182394;23;20059;-87
2022/12/27 02:12:03;;;;;;;19.63;3.50;;;;;;;0.59;100.00;102203.19;6181723;23;20050;-88
2022/12/27 02:14:42;;;;;;;20.27;3.30;;;;;;;0.55;100.00;102193.91;6181831;23;20009;-87
2022/12/27 02:17:14;;;;;;;14.02;3.20;;;;;;;0.57;100.00;102202.50;6182166;23;20082;-87
2022/12/27 02:19:39;;;;;;;20.20;3.47;;;;;;;0.62;100.00;102207.34;6181298;23;20001;-87
2022/12/27 02:24:01;;;;;;;15.47;3.63;;;;;;;0.67;100.00;102205.03;6181559;23;20248;-87
2022/12/27 02:25:51;;;;;;;16.60;4.13;;;;;;;0.73;100.00;102199.94;6135397;23;20005;-87
2022/12/27 02:28:25;;;;;;;11.57;3.67;;;;;;;0.77;100.00;102210.19;6182361;23;20445;-87
2022/12/27 02:30:57;;;;;;;17.15;2.80;;;;;;;0.71;100.00;102198.47;6181895;23;20005;-87
2022/12/27 02:33:28;;;;;;;9.07;3.40;;;;;;;0.69;100.00;102211.81;6181714;23;20048;-87
2022/12/27 02:35:59;;;;;;;16.02;3.17;;;;;;;0.69;100.00;102211.81;6182361;23;20007;-87
2022/12/27 02:38:30;;;;;;;16.70;3.72;;;;;;;0.67;100.00;102210.31;6182351;23;20005;-86
2022/12/27 02:53:03;;;;;;;15.82;3.00;;;;;;;0.73;100.00;102221.06;6181811;23;20016;-87
2022/12/27 02:59:22;;;;;;;13.80;3.50;;;;;;;0.68;100.00;102212.81;6182538;23;20035;-86
2022/12/27 03:05:28;;;;;;;19.90;3.38;;;;;;;0.79;100.00;102214.34;6184077;23;20044;-87
2022/12/27 03:08:25;;;;;;;14.00;3.22;;;;;;;0.78;100.00;102217.13;6183736;23;20013;-87
2022/12/27 03:16:55;;;;;;;9.67;2.97;;;;;;;0.66;100.00;102201.59;6183861;23;20389;-87
2022/12/27 03:33:11;;;;;;;20.23;2.72;;;;;;;0.70;100.00;102221.41;6182405;23;20036;-87
2022/12/27 03:33:22;;;;;;;13.00;2.37;;;;;;;0.73;100.00;102222.88;6182955;23;20019;-87
2022/12/27 03:39:06;;;;;;;21.08;3.70;;;;;;;0.86;100.00;102251.47;6183198;23;20028;-87
2022/12/27 03:44:24;;;;;;;19.05;3.10;;;;;;;0.81;100.00;102248.47;6183637;23;20346;-87
2022/12/27 03:47:12;;;;;;;25.92;3.15;;;;;;;0.90;100.00;102245.72;6183141;23;20009;-87
2022/12/27 03:49:47;;;;;;;14.18;3.33;;;;;;;0.87;100.00;102248.69;6182843;23;20005;-87
2022/12/27 03:52:40;;;;;;;14.67;3.10;;;;;;;0.86;100.00;102246.22;6182736;23;20338;-87
2022/12/27 03:55:07;;;;;;;16.95;3.08;;;;;;;0.89;100.00;102245.91;6111273;23;20027;-86
2022/12/27 03:57:33;;;;;;;14.48;3.35;;;;;;;0.84;100.00;102240.25;6182349;23;20059;-86
2022/12/27 03:59:58;;;;;;;11.68;3.38;;;;;;;0.86;100.00;102247.03;6182198;23;20017;-86
2022/12/27 04:02:23;;;;;;;12.53;2.93;;;;;;;0.81;100.00;102254.59;6183486;23;20001;-87
2022/12/27 04:04:49;;;;;;;15.90;3.33;;;;;;;0.76;100.00;102254.25;6183265;23;20469;-87
2022/12/27 04:07:15;;;;;;;16.67;3.37;;;;;;;0.81;100.00;102259.88;6155776;23;20008;-86
2022/12/27 04:37:02;;;;;;;21.30;3.40;;;;;;;0.72;100.00;102255.53;6181980;23;20323;-86
2022/12/27 04:39:27;;;;;;;9.55;2.33;;;;;;;0.71;100.00;102259.16;6182534;23;20001;-86
2022/12/27 04:54:55;;;;;;;11.75;2.70;;;;;;;0.67;100.00;102253.38;6182780;23;20081;-86
2022/12/27 04:56:05;;;;;;;14.77;3.10;;;;;;;0.68;100.00;102283.22;6182159;23;20512;-86
2022/12/27 04:58:30;;;;;;;15.88;3.10;;;;;;;0.69;100.00;102288.34;6181494;23;19997;-86
2022/12/27 05:03:44;;;;;;;14.95;2.65;;;;;;;0.68;100.00;102281.41;6182194;23;20345;-86
2022/12/27 05:06:10;;;;;;;20.47;3.70;;;;;;;0.84;100.00;102283.28;6183135;23;20333;-86
2022/12/27 05:14:09;;;;;;;11.77;2.40;;;;;;;0.93;100.00;102294.72;6182594;23;20019;-86
2022/12/27 05:16:37;;;;;;;13.30;2.30;;;;;;;0.77;100.00;102292.84;6182067;23;20028;-86
2022/12/27 05:19:04;;;;;;;13.40;2.60;;;;;;;0.65;100.00;102291.44;6182601;23;20011;-86
2022/12/27 05:21:29;;;;;;;14.82;2.80;;;;;;;0.62;100.00;102284.66;6181475;23;20334;-86
2022/12/27 05:26:39;;;;;;;9.57;3.10;;;;;;;0.53;100.00;102272.41;6181326;23;20032;-86
2022/12/27 05:29:06;;;;;;;17.73;2.67;;;;;;;0.51;100.00;102290.22;6181543;23;20413;-86
2022/12/27 05:31:31;;;;;;;14.77;2.57;;;;;;;0.50;100.00;102289.38;6181336;23;20055;-86
2022/12/27 05:33:56;;;;;;;14.77;2.77;;;;;;;0.51;100.00;102296.28;6181761;23;20769;-86
2022/12/27 05:36:23;;;;;;;11.77;2.87;;;;;;;0.66;100.00;102296.56;6181948;23;20311;-87
2022/12/27 05:38:49;;;;;;;15.73;3.30;;;;;;;0.92;100.00;102308.91;6182119;23;20025;-87
2022/12/27 05:41:15;;;;;;;24.08;3.70;;;;;;;1.15;100.00;102324.19;6179991;23;20015;-86
2022/12/27 05:43:40;;;;;;;18.70;3.60;;;;;;;1.24;100.00;102331.19;6182032;23;20005;-87
2022/12/27 05:46:14;;;;;;;23.93;4.10;;;;;;;1.40;100.00;102345.44;6182353;23;20016;-89
2022/12/27 05:48:40;;;;;;;18.10;3.45;;;;;;;1.44;100.00;102339.69;6182226;23;20008;-86
2022/12/27 05:51:13;;;;;;;12.63;3.20;;;;;;;1.49;100.00;102347.97;6180746;23;20009;-87
2022/12/27 05:53:38;;;;;;;16.45;3.28;;;;;;;1.54;100.00;102352.75;6181668;23;20001;-87
2022/12/27 05:56:04;;;;;;;18.83;3.60;;;;;;;1.55;100.00;102358.88;6182490;23;20019;-87
2022/12/27 05:58:30;;;;;;;17.73;3.22;;;;;;;1.51;100.00;102361.84;6182150;23;20330;-87
2022/12/27 06:00:56;;;;;;;16.88;3.50;;;;;;;1.48;100.00;102348.09;6153642;23;20013;-86
2022/12/27 06:03:21;;;;;;;19.57;2.90;;;;;;;1.40;100.00;102350.72;6182342;23;20012;-87
2022/12/27 06:05:47;;;;;;;20.15;2.95;;;;;;;1.31;100.00;102355.97;6181292;23;20334;-86
2022/12/27 06:08:13;;;;;;;15.47;3.47;;;;;;;1.24;100.00;102354.13;6183034;23;20080;-87
2022/12/27 06:10:38;;;;;;;17.80;2.63;;;;;;;1.07;100.00;102337.38;6181677;23;20259;-86
2022/12/27 06:13:04;;;;;;;12.10;2.67;;;;;;;1.01;100.00;102344.94;6180207;23;20529;-86
2022/12/27 06:15:30;;;;;;;12.48;2.97;;;;;;;0.89;100.00;102346.19;6182304;23;20010;-86
2022/12/27 06:17:57;;;;;;;19.70;2.70;;;;;;;0.78;100.00;102349.06;6181823;23;20076;-86
2022/12/27 06:20:22;;;;;;;19.93;3.07;;;;;;;0.75;100.00;102360.78;6181323;23;20262;-86
2022/12/27 06:22:48;;;;;;;14.02;2.85;;;;;;;0.72;100.00;102346.09;6181691;23;20008;-86
2022/12/27 06:25:13;;;;;;;15.67;2.33;;;;;;;0.68;100.00;102355.28;6181367;23;19997;-88
2022/12/27 06:27:39;;;;;;;19.43;3.00;;;;;;;0.64;100.00;102350.47;6181814;23;20005;-87
2022/12/27 06:30:06;;;;;;;19.40;2.88;;;;;;;0.62;100.00;102358.53;6180683;23;20005;-87
2022/12/27 06:32:32;;;;;;;14.97;2.53;;;;;;;0.53;100.00;102362.09;6181960;23;20001;-87
2022/12/27 06:34:57;;;;;;;9.83;2.50;;;;;;;0.45;100.00;102358.41;6181772;23;20264;-87
2022/12/27 06:37:22;;;;;;;17.90;2.83;;;;;;;0.45;100.00;102357.59;6180211;23;20024;-87
2022/12/27 06:39:47;;;;;;;25.30;3.43;;;;;;;0.44;100.00;102359.38;6180336;23;20012;-86
2022/12/27 06:42:13;;;;;;;12.83;3.03;;;;;;;0.39;100.00;102347.66;6178548;23;20041;-87
2022/12/27 06:44:38;;;;;;;14.60;2.90;;;;;;;0.30;100.00;102350.19;6180872;23;20001;-86
2022/12/27 06:47:03;;;;;;;12.10;2.85;;;;;;;0.24;100.00;102345.56;6182087;23;20005;-86
2022/12/27 06:49:29;;;;;;;15.27;2.43;;;;;;;0.17;100.00;102341.84;6180376;23;20433;-87
2022/12/27 06:51:54;;;;;;;15.63;3.10;;;;;;;0.17;100.00;102346.31;6176564;23;19997;-86
2022/12/27 06:54:20;;;;;;;16.57;2.50;;;;;;;0.15;100.00;102349.09;6180563;23;20017;-87
2022/12/27 06:56:45;;;;;;;6.97;2.70;;;;;;;0.12;100.00;102350.22;6181411;23;20236;-86
2022/12/27 06:59:11;;;;;;;18.03;3.33;;;;;;;0.10;100.00;102352.19;6182082;23;20012;-86
2022/12/27 07:01:36;;;;;;;17.65;3.17;;;;;;;0.11;100.00;102358.25;6154569;23;20063;-86
2022/12/27 07:04:02;;;;;;;17.37;2.93;;;;;;;0.10;100.00;102361.88;6181775;23;20001;-86
2022/12/27 07:06:29;;;;;;;16.23;3.17;;;;;;;0.09;100.00;102360.25;6180674;23;20012;-88
2022/12/27 07:08:56;;;;;;;17.58;3.42;;;;;;;0.05;100.00;102372.06;6181695;23;20013;-91
2022/12/27 07:11:23;;;;;;;15.90;2.85;;;;;;;0.04;100.00;102365.13;6179751;23;20027;-88
2022/12/27 07:13:51;;;;;;;15.43;3.17;;;;;;;0.06;100.00;102377.19;6180957;23;20015;-88
2022/12/27 07:16:19;;;;;;;20.13;3.50;;;;;;;0.05;100.00;102374.69;6181800;23;20001;-89
2022/12/27 07:18:44;;;;;;;17.33;3.67;;;;;;;0.03;100.00;102374.03;6180886;23;20001;-88
2022/12/27 07:21:15;;;;;;;10.80;3.30;;;;;;;0.03;100.00;102377.47;6179982;23;20008;-87
2022/12/27 07:23:40;;;;;;;17.00;2.90;;;;;;;-0.04;100.00;102381.69;6180286;23;20080;-87
2022/12/27 07:26:09;;;;;;;18.43;3.80;;;;;;;-0.03;100.00;102370.19;6180244;23;20332;-87
2022/12/27 07:28:35;;;;;;;20.08;3.75;;;;;;;-0.05;100.00;102374.75;6179976;23;20001;-87
2022/12/27 07:31:12;;;;;;;17.77;3.97;;;;;;;0.03;100.00;102380.09;6191075;23;20001;-91
2022/12/27 07:33:38;;;;;;;17.50;3.60;;;;;;;0.07;100.00;102384.09;6188992;23;20112;-88
2022/12/27 07:36:07;;;;;;;19.58;4.13;;;;;;;0.12;100.00;102387.13;6181499;23;20407;-89
2022/12/27 07:38:32;;;;;;;16.23;3.88;;;;;;;0.12;100.00;102381.84;6155733;23;20005;-89
2022/12/27 07:40:59;;;;;;;17.17;4.70;;;;;;;0.18;100.00;102385.69;6181511;23;20440;-89
2022/12/27 07:43:25;;;;;;;20.77;4.25;;;;;;;0.25;100.00;102388.56;6181023;23;20028;-89
2022/12/27 07:45:51;;;;;;;21.40;4.20;;;;;;;0.24;100.00;102384.25;6180687;23;20005;-87
2022/12/27 07:48:16;;;;;;;20.17;5.17;;;;;;;0.28;100.00;102385.63;6183092;23;20304;-88
2022/12/27 07:50:41;;;;;;;22.30;4.30;;;;;;;0.30;100.00;102384.47;6183024;23;20017;-88
2022/12/27 07:53:07;;;;;;;26.20;5.53;;;;;;;0.28;100.00;102386.44;6181476;23;20089;-87
2022/12/27 07:55:32;;;;;;;25.45;6.63;;;;;;;0.37;100.00;102397.88;6182033;23;20422;-88
2022/12/27 07:57:57;;;;;;;31.20;6.70;;;;;;;0.37;100.00;102399.72;6184431;23;20005;-88
2022/12/27 08:00:23;;;;;;;24.67;5.93;;;;;;;0.43;100.00;102399.13;6182819;23;20020;-87
2022/12/27 08:02:48;;;;;;;35.33;5.40;;;;;;;0.46;100.00;102393.53;6183273;23;20426;-87
2022/12/27 08:05:13;;;;;;;25.27;5.60;;;;;;;0.47;100.00;102384.63;6183484;23;20005;-86
2022/12/27 08:07:40;;;;;;;23.47;4.63;;;;;;;0.52;100.00;102398.19;6183099;23;20033;-87
2022/12/27 08:10:05;;;;;;;24.95;6.15;;;;;;;0.67;100.00;102403.78;6179184;23;20001;-88
2022/12/27 08:12:30;;;;;;;22.77;4.78;;;;;;;0.70;100.00;102398.19;6182492;23;20071;-88
2022/12/27 08:14:56;;;;;;;22.27;5.40;;;;;;;0.73;100.00;102403.13;6184049;23;20012;-88
2022/12/27 08:17:25;;;;;;;27.80;5.40;;;;;;;0.75;100.00;102403.00;6184043;23;20001;-88
2022/12/27 08:19:52;;;;;;;23.52;4.97;;;;;;;0.75;100.00;102410.91;6181918;23;20037;-88
2022/12/27 08:22:17;;;;;;;28.45;7.05;;;;;;;0.89;100.00;102409.53;6183417;23;20005;-86
2022/12/27 08:24:43;;;;;;;28.97;6.77;;;;;;;0.97;100.00;102414.06;6182557;23;20078;-87
2022/12/27 08:27:09;;;;;;;22.43;7.03;;;;;;;0.98;100.00;102419.16;6183453;23;20001;-88
2022/12/27 08:29:38;;;;;;;24.70;6.45;;;;;;;0.94;100.00;102417.00;6182116;23;20064;-86
2022/12/27 08:32:04;;;;;;;22.88;5.88;;;;;;;0.89;100.00;102414.81;6182509;23;20001;-87
2022/12/27 08:34:30;;;;;;;28.13;6.47;;;;;;;0.93;100.00;102426.72;6182500;23;20488;-88
2022/12/27 08:36:55;;;;;;;29.63;6.47;;;;;;;0.94;100.00;102423.09;6182946;23;20084;-88
2022/12/27 08:39:20;;;;;;;30.00;7.43;;;;;;;0.96;100.00;102420.31;6182861;23;20370;-88
2022/12/27 08:41:46;;;;;;;25.57;6.03;;;;;;;1.00;100.00;102419.03;6183007;23;20021;-88
2022/12/27 08:44:12;;;;;;;26.13;6.43;;;;;;;1.01;100.00;102418.84;6182087;23;20001;-88
2022/12/27 08:46:37;;;;;;;32.65;6.32;;;;;;;1.05;100.00;102419.38;6183023;23;20467;-88
2022/12/27 08:49:03;;;;;;;23.40;6.50;;;;;;;1.08;100.00;102423.53;6182562;23;20086;-87
2022/12/27 08:51:29;;;;;;;25.15;5.88;;;;;;;1.11;100.00;102421.41;6181810;23;20005;-87
2022/12/27 08:53:54;;;;;;;23.77;6.40;;;;;;;1.20;100.00;102417.81;6182755;23;20417;-87
2022/12/27 08:56:20;;;;;;;29.27;6.30;;;;;;;1.21;100.00;102414.19;6183122;23;19997;-88
2022/12/27 08:58:48;;;;;;;26.23;6.80;;;;;;;1.23;100.00;102411.41;6183120;23;20600;-88
2022/12/27 09:01:13;;;;;;;25.33;5.70;;;;;;;1.26;100.00;102410.25;6182074;23;20079;-87
2022/12/27 09:03:38;;;;;;;39.50;6.47;;;;;;;1.35;100.00;102407.50;6182887;23;20047;-88
2022/12/27 09:06:16;;;;;;;25.95;6.63;;;;;;;1.40;100.00;102408.84;6183948;23;20474;-88
2022/12/27 09:08:42;;;;;;;29.43;6.63;;;;;;;1.46;100.00;102410.88;6183297;23;20372;-88
2022/12/27 09:11:13;;;;;;;25.50;6.37;;;;;;;1.49;100.00;102405.25;6180640;23;20249;-88
2022/12/27 09:13:40;;;;;;;27.60;7.28;;;;;;;1.51;100.00;102406.75;6182359;23;20005;-90
2022/12/27 09:16:10;;;;;;;19.08;5.80;;;;;;;1.54;100.00;102402.16;6182380;23;20057;-90
2022/12/27 09:18:37;;;;;;;21.98;6.25;;;;;;;1.60;100.00;102415.56;6182874;23;20009;-91
2022/12/27 09:21:28;;;;;;;23.73;6.85;;;;;;;1.62;100.00;102410.94;6182000;23;20009;-92
2022/12/27 09:23:53;;;;;;;31.93;7.53;;;;;;;1.68;100.00;102417.41;6181325;23;20371;-91
2022/12/27 09:26:21;;;;;;;22.37;5.87;;;;;;;1.70;100.00;102418.06;6187987;23;20245;-93
2022/12/27 09:28:48;;;;;;;27.45;6.35;;;;;;;1.74;100.00;102419.38;6181820;23;20009;-90
2022/12/27 09:31:14;;;;;;;24.67;6.30;;;;;;;1.80;100.00;102415.31;6183050;23;20012;-90
2022/12/27 09:33:40;;;;;;;27.63;6.53;;;;;;;1.85;100.00;102428.03;6183342;23;20417;-89
2022/12/27 09:36:18;;;;;;;24.67;7.03;;;;;;;1.89;100.00;102427.53;6183373;23;20032;-89
2022/12/27 09:38:45;;;;;;;24.47;5.93;;;;;;;1.92;100.00;102432.53;6183266;23;20013;-90
2022/12/27 09:41:36;;;;;;;19.70;5.03;;;;;;;1.95;100.00;102428.72;6181621;23;20005;-90
2022/12/27 09:44:11;;;;;;;16.73;6.50;;;;;;;2.06;100.00;102435.53;6140415;23;20076;-89
2022/12/27 09:46:47;;;;;;;19.33;5.80;;;;;;;2.10;100.00;102436.88;6182588;23;20016;-89
2022/12/27 09:49:36;;;;;;;25.20;7.03;;;;;;;2.14;100.00;102418.84;6182549;23;20005;-89
2022/12/27 09:52:10;;;;;;;19.98;5.03;;;;;;;2.18;100.00;102434.25;6183823;23;20001;-90
2022/12/27 09:54:43;;;;;;;19.07;5.30;;;;;;;2.19;100.00;102433.22;6181928;23;20013;-90
2022/12/27 09:57:36;;;;;;;24.45;5.38;;;;;;;2.25;100.00;102429.94;6181333;23;20421;-90
2022/12/27 10:00:06;;;;;;;17.85;5.78;;;;;;;2.33;100.00;102438.91;6172565;23;20401;-90
2022/12/27 10:02:37;;;;;;;20.65;5.97;;;;;;;2.27;100.00;102420.03;6179866;22;20017;-90
2022/12/27 10:05:03;;;;;;;28.30;5.43;;;;;;;2.32;100.00;102418.72;6182329;23;20012;-89
2022/12/27 10:07:54;;;;;;;27.60;6.50;;;;;;;2.47;100.00;102438.25;6181513;23;20005;-90
2022/12/27 10:10:33;;;;;;;19.90;5.50;;;;;;;2.49;100.00;102436.28;6182430;23;20008;-91
2022/12/27 10:13:13;;;;;;;17.40;5.43;;;;;;;2.56;100.00;102449.66;6183967;23;19997;-93
2022/12/27 10:15:47;;;;;;;22.25;6.80;;;;;;;2.68;100.00;102437.75;6187210;23;20027;-95
2022/12/27 10:18:28;;;;;;;23.50;6.70;;;;;;;2.76;100.00;102444.06;6184493;23;20001;-91
2022/12/27 10:21:03;;;;;;;20.67;5.03;;;;;;;2.78;100.00;102450.84;6182445;23;20266;-92
2022/12/27 10:23:33;;;;;;;16.45;4.72;;;;;;;2.82;100.00;102440.75;6182156;23;20005;-92
2022/12/27 10:26:02;;;;;;;16.63;4.90;;;;;;;2.86;100.00;102423.53;6182966;23;20001;-93
2022/12/27 10:28:57;;;;;;;14.63;5.03;;;;;;;2.92;100.00;102427.34;6183619;23;20005;-92
2022/12/27 10:31:23;;;;;;;14.77;4.70;;;;;;;3.00;100.00;102430.81;6182449;23;20013;-95
2022/12/27 10:33:52;;;;;;;17.63;5.23;;;;;;;3.06;100.00;102426.66;6184625;23;20028;-93
2022/12/27 10:36:22;;;;;;;17.60;5.03;;;;;;;3.11;100.00;102434.91;6183213;23;20307;-91
2022/12/27 10:38:47;;;;;;;18.88;4.40;;;;;;;3.05;100.00;102419.72;6181161;22;20019;-93
2022/12/27 10:41:42;;;;;;;13.60;4.43;;;;;;;3.21;100.00;102437.38;6184009;23;20040;-94
2022/12/27 10:44:10;;;;;;;19.27;4.97;;;;;;;3.29;100.00;102441.81;6183583;23;20055;-93
2022/12/27 10:57:15;;;;;;;12.93;3.53;;;;;;;3.51;100.00;102442.09;6163837;22;20465;-95
2022/12/27 11:06:25;;;;;;;10.80;3.22;;;;;;;3.45;100.00;102431.22;6187737;22;20027;-96
2022/12/27 11:08:52;;;;;;;14.13;3.30;;;;;;;3.45;100.00;102423.25;6184536;23;20005;-95
2022/12/27 11:17:37;;;;;;;11.45;3.47;;;;;;;3.83;100.00;102429.75;6124811;23;20101;-94
2022/12/27 11:20:18;;;;;;;11.30;3.55;;;;;;;3.89;100.00;102421.06;6178330;23;20091;-93
2022/12/27 11:23:05;;;;;;;11.80;3.75;;;;;;;3.99;100.00;102415.56;6183921;23;20012;-94
2022/12/27 11:25:32;;;;;;;9.13;3.25;;;;;;;4.11;100.00;102418.63;6168654;23;20517;-93
2022/12/27 11:28:42;;;;;;;12.52;3.22;;;;;;;4.21;100.00;102427.19;6184310;23;20001;-93
2022/12/27 11:31:12;;;;;;;10.67;3.07;;;;;;;4.35;100.00;102425.59;6159599;23;20013;-93
2022/12/27 11:33:46;;;;;;;8.88;2.70;;;;;;;4.42;100.00;102417.75;6184131;23;20009;-93
2022/12/27 11:36:14;;;;;;;13.30;3.17;;;;;;;4.46;100.00;102419.91;6185018;23;20389;-94
2022/12/27 11:38:43;;;;;;;10.65;3.25;;;;;;;4.54;100.00;102432.28;6184579;23;20011;-94
2022/12/27 11:41:37;;;;;;;9.93;3.10;;;;;;;4.59;100.00;102421.94;6184062;23;20019;-92
2022/12/27 11:44:22;;;;;;;14.37;3.47;;;;;;;4.69;100.00;102422.53;6185325;23;20036;-93
2022/12/27 11:47:01;;;;;;;11.53;3.50;;;;;;;4.77;100.00;102418.13;6187949;23;20252;-91
2022/12/27 11:49:34;;;;;;;9.68;3.33;;;;;;;4.88;100.00;102416.88;6192509;23;20437;-91
2022/12/27 11:52:02;;;;;;;10.27;3.03;;;;;;;4.93;100.00;102407.34;6183761;23;20031;-92
2022/12/27 11:55:12;;;;;;;7.72;2.80;;;;;;;4.91;100.00;102404.09;6184138;23;20001;-92
2022/12/27 11:58:09;;;;;;;7.20;2.33;;;;;;;4.76;100.00;102405.88;6148865;23;20058;-91
2022/12/27 12:00:48;;;;;;;8.95;2.55;;;;;;;4.63;100.00;102409.16;6151435;23;20075;-91
2022/12/27 12:03:51;;;;;;;6.63;2.40;;;;;;;4.44;100.00;102413.09;6159423;23;20129;-92
2022/12/27 12:06:28;;;;;;;7.10;2.38;;;;;;;4.32;100.00;102412.69;6136446;23;20063;-91
2022/12/27 12:09:13;;;;;;;11.02;2.40;;;;;;;4.19;100.00;102410.63;6184319;23;20433;-92
2022/12/27 12:12:15;;;;;;;7.80;2.63;;;;;;;4.14;100.00;102403.19;6183139;23;20362;-91
2022/12/27 12:15:14;;;;;;;9.90;2.22;;;;;;;4.15;100.00;102396.88;6185196;23;20005;-91
2022/12/27 12:20:47;;;;;;;12.40;2.33;;;;;;;4.11;100.00;102386.81;6184769;23;20371;-91
2022/12/27 12:23:25;;;;;;;11.55;2.60;;;;;;;4.06;100.00;102377.53;6187461;23;20009;-92
2022/12/27 12:26:19;;;;;;;7.85;2.40;;;;;;;3.97;100.00;102375.94;6188180;23;20009;-91
2022/12/27 12:29:13;;;;;;;11.35;2.70;;;;;;;3.94;100.00;102379.75;6176248;23;20011;-90
2022/12/27 12:31:48;;;;;;;9.48;2.38;;;;;;;3.99;100.00;102383.72;6187721;23;20009;-91
2022/12/27 12:34:31;;;;;;;13.60;2.50;;;;;;;4.09;100.00;102379.84;6191147;23;20036;-90
2022/12/27 12:37:01;;;;;;;6.10;2.30;;;;;;;4.16;100.00;102376.50;6190509;23;20236;-91
2022/12/27 12:39:47;;;;;;;10.27;2.40;;;;;;;4.21;100.00;102369.66;6192237;23;20415;-92
2022/12/27 12:42:34;;;;;;;5.22;1.98;;;;;;;4.24;100.00;102377.25;6192185;23;20001;-92
2022/12/27 12:45:35;;;;;;;10.45;2.67;;;;;;;4.20;100.00;102372.50;6185885;23;20093;-91
2022/12/27 12:48:33;;;;;;;7.63;2.42;;;;;;;4.12;100.00;102359.28;6184213;23;20046;-91
2022/12/27 12:51:04;;;;;;;11.63;2.43;;;;;;;4.08;100.00;102361.47;6182560;23;20005;-91
2022/12/27 12:53:47;;;;;;;7.60;2.30;;;;;;;4.06;100.00;102347.53;6183557;23;20241;-90
2022/12/27 12:56:31;;;;;;;11.55;2.30;;;;;;;4.06;100.00;102344.88;6184008;23;20414;-91
2022/12/27 12:59:33;;;;;;;12.98;2.50;;;;;;;4.12;100.00;102327.44;6184646;23;20076;-90
2022/12/27 13:02:04;;;;;;;13.48;2.85;;;;;;;4.23;100.00;102327.00;6184105;23;20005;-90
2022/12/27 13:04:43;;;;;;;9.32;2.45;;;;;;;4.32;100.00;102322.44;6184270;23;20001;-90
2022/12/27 13:07:33;;;;;;;11.18;2.10;;;;;;;4.37;100.00;102318.28;6183972;23;20043;-91
2022/12/27 13:10:40;;;;;;;8.87;2.40;;;;;;;4.34;100.00;102304.53;6182917;23;20009;-91
2022/12/27 13:13:26;;;;;;;8.80;2.13;;;;;;;4.31;100.00;102300.41;6184888;23;20005;-91
2022/12/27 13:16:10;;;;;;;9.07;2.40;;;;;;;4.28;100.00;102294.66;6188043;23;20005;-92
2022/12/27 13:18:50;;;;;;;7.18;1.88;;;;;;;4.27;100.00;102306.25;6190178;23;20032;-91
2022/12/27 13:21:53;;;;;;;7.95;2.05;;;;;;;4.18;100.00;102284.28;6188606;23;20069;-93
2022/12/27 13:24:49;;;;;;;12.33;2.67;;;;;;;4.06;100.00;102292.63;6186366;23;20013;-93
2022/12/27 13:27:59;;;;;;;10.73;2.77;;;;;;;4.03;100.00;102303.59;6191403;23;20248;-96
2022/12/27 13:30:46;;;;;;;11.05;2.13;;;;;;;4.00;100.00;102301.34;6202772;23;20019;-96
2022/12/27 13:34:07;;;;;;;9.52;2.47;;;;;;;3.99;100.00;102296.19;6184030;23;20028;-92
2022/12/27 13:37:07;;;;;;;10.43;2.58;;;;;;;3.88;100.00;102276.22;6104988;23;20009;-92
2022/12/27 13:39:52;;;;;;;9.43;2.42;;;;;;;4.01;100.00;102280.91;6194574;23;20016;-93
2022/12/27 13:42:27;;;;;;;11.27;2.23;;;;;;;4.04;100.00;102270.78;6186884;23;20307;-93
2022/12/27 13:45:01;;;;;;;6.33;2.10;;;;;;;4.02;100.00;102256.03;6185358;23;20735;-93